Time;durP1;ratioP1;P1;durP2;ratioP2;P2;SDS_P1;SDS_P2;PMS_P1;PMS_P2;Temp;Humidity;BMP_temperature;BMP_pressure;BME280_temperature;BME280_humidity;BME280_pressure;Samples;Min_cycle;Max_cycle;Signal;HPM_P1;HPM_P2
2023/11/29 00:01:28;;;;;;;;;;;;;;;;;;5052246;28;20110;-66
2023/11/29 00:03:54;;;;;;;;;;;;;;;;;;5049388;28;19925;-66
2023/11/29 00:06:20;;;;;;;;;;;;;;;;;;5049703;28;19932;-66
2023/11/29 00:08:46;;;;;;;;;;;;;;;;;;5047910;28;20325;-66
2023/11/29 00:11:12;;;;;;;;;;;;;;;;;;5051825;28;19947;-65
2023/11/29 00:13:38;;;;;;;;;;;;;;;;;;5047356;28;19932;-65
2023/11/29 00:16:04;;;;;;;;;;;;;;;;;;5047424;28;20441;-64
2023/11/29 00:18:30;;;;;;;;;;;;;;;;;;5051314;28;19971;-64
2023/11/29 00:20:56;;;;;;;;;;;;;;;;;;5050969;28;19929;-64
2023/11/29 00:23:22;;;;;;;;;;;;;;;;;;5050712;28;20562;-65
2023/11/29 00:25:47;;;;;;;;;;;;;;;;;;5050627;28;19931;-64
2023/11/29 00:28:13;;;;;;;;;;;;;;;;;;5047724;28;19928;-63
2023/11/29 00:30:39;;;;;;;;;;;;;;;;;;5049366;28;19924;-63
2023/11/29 00:33:05;;;;;;;;;;;;;;;;;;5051074;28;19925;-63
2023/11/29 00:35:31;;;;;;;;;;;;;;;;;;5049338;28;19924;-63
2023/11/29 00:37:57;;;;;;;;;;;;;;;;;;5050337;28;20232;-63
2023/11/29 00:40:23;;;;;;;;;;;;;;;;;;5048072;28;20394;-63
2023/11/29 00:42:49;;;;;;;;;;;;;;;;;;5051126;28;19994;-63
2023/11/29 00:45:15;;;;;;;;;;;;;;;;;;5047638;28;19921;-63
2023/11/29 00:47:41;;;;;;;;;;;;;;;;;;5049229;28;19921;-63
2023/11/29 00:50:07;;;;;;;;;;;;;;;;;;5051554;28;20366;-63
2023/11/29 00:52:33;;;;;;;;;;;;;;;;;;5050158;28;19984;-63
2023/11/29 00:54:59;;;;;;;;;;;;;;;;;;5050118;28;20027;-63
2023/11/29 00:57:25;;;;;;;;;;;;;;;;;;5051475;28;19927;-64
2023/11/29 00:59:51;;;;;;;;;;;;;;;;;;5046780;28;19921;-64
2023/11/29 01:02:16;;;;;;;;;;;;;;;;;;5050198;28;19929;-64
2023/11/29 01:04:42;;;;;;;;;;;;;;;;;;5041227;28;19944;-64
2023/11/29 01:07:08;;;;;;;;;;;;;;;;;;5045337;28;20520;-64
2023/11/29 01:09:34;;;;;;;;;;;;;;;;;;5051505;28;19921;-64
2023/11/29 01:12:00;;;;;;;;;;;;;;;;;;5048706;28;19931;-64
2023/11/29 01:14:26;;;;;;;;;;;;;;;;;;5043357;28;19931;-64
2023/11/29 01:16:52;;;;;;;;;;;;;;;;;;5051535;28;19927;-64
2023/11/29 01:19:23;;;;;;;;;;;;;;;;;;5050030;28;20037;-64
2023/11/29 01:21:49;;;;;;;;;;;;;;;;;;5045968;28;19924;-63
2023/11/29 01:24:15;;;;;;;;;;;;;;;;;;5051093;28;20405;-63
2023/11/29 01:26:41;;;;;;;;;;;;;;;;;;5046212;28;19982;-63
2023/11/29 01:29:07;;;;;;;;;;;;;;;;;;5048660;28;19928;-64
2023/11/29 01:31:33;;;;;;;;;;;;;;;;;;5045124;28;19921;-65
2023/11/29 01:33:58;;;;;;;;;;;;;;;;;;5047432;28;20389;-64
2023/11/29 01:36:24;;;;;;;;;;;;;;;;;;5047377;28;19924;-62
2023/11/29 01:38:51;;;;;;;;;;;;;;;;;;5049604;28;19940;-65
2023/11/29 01:41:16;;;;;;;;;;;;;;;;;;5048359;28;19935;-64
2023/11/29 01:43:42;;;;;;;;;;;;;;;;;;5047660;28;19924;-64
2023/11/29 01:46:08;;;;;;;;;;;;;;;;;;5046535;28;20016;-63
2023/11/29 01:48:34;;;;;;;;;;;;;;;;;;5049343;28;19928;-63
2023/11/29 01:51:00;;;;;;;;;;;;;;;;;;5048045;28;20010;-63
2023/11/29 01:53:29;;;;;;;;;;;;;;;;;;5050752;28;20340;-63
2023/11/29 01:55:57;;;;;;;;;;;;;;;;;;5048898;28;19928;-63
2023/11/29 01:58:23;;;;;;;;;;;;;;;;;;5046950;28;20349;-63
2023/11/29 02:00:49;;;;;;;;;;;;;;;;;;5045368;28;20019;-63
2023/11/29 02:03:15;;;;;;;;;;;;;;;;;;5048521;28;20032;-64
2023/11/29 02:05:41;;;;;;;;;;;;;;;;;;5048923;28;19925;-64
2023/11/29 02:08:07;;;;;;;;;;;;;;;;;;5048476;28;20401;-63
2023/11/29 02:10:33;;;;;;;;;;;;;;;;;;5049774;28;20030;-64
2023/11/29 02:12:59;;;;;;;;;;;;;;;;;;5050026;28;20095;-62
2023/11/29 02:15:25;;;;;;;;;;;;;;;;;;5047112;28;19931;-62
2023/11/29 02:17:51;;;;;;;;;;;;;;;;;;5043198;28;20549;-63
2023/11/29 02:20:17;;;;;;;;;;;;;;;;;;5048306;28;19925;-62
2023/11/29 02:22:42;;;;;;;;;;;;;;;;;;5051223;28;19930;-64
2023/11/29 02:25:08;;;;;;;;;;;;;;;;;;5052798;28;19921;-64
2023/11/29 02:27:34;;;;;;;;;;;;;;;;;;5048143;28;19920;-64
2023/11/29 02:30:00;;;;;;;;;;;;;;;;;;5046737;28;20279;-64
2023/11/29 02:32:27;;;;;;;;;;;;;;;;;;5045334;28;19932;-64
2023/11/29 02:34:53;;;;;;;;;;;;;;;;;;5048462;28;19921;-64
2023/11/29 02:37:18;;;;;;;;;;;;;;;;;;5047384;28;19935;-64
2023/11/29 02:39:44;;;;;;;;;;;;;;;;;;5046875;28;19940;-64
2023/11/29 02:42:10;;;;;;;;;;;;;;;;;;5045406;28;20303;-64
2023/11/29 02:44:36;;;;;;;;;;;;;;;;;;5046523;28;20359;-64
2023/11/29 02:47:02;;;;;;;;;;;;;;;;;;5047699;28;20007;-64
2023/11/29 02:49:28;;;;;;;;;;;;;;;;;;5049254;28;20082;-65
2023/11/29 02:51:54;;;;;;;;;;;;;;;;;;5051660;28;20001;-65
2023/11/29 02:54:20;;;;;;;;;;;;;;;;;;5053193;28;19996;-63
2023/11/29 02:56:46;;;;;;;;;;;;;;;;;;5048172;28;19928;-63
2023/11/29 02:59:12;;;;;;;;;;;;;;;;;;5052396;28;19935;-64
2023/11/29 03:01:38;;;;;;;;;;;;;;;;;;5053338;28;20379;-64
2023/11/29 03:04:04;;;;;;;;;;;;;;;;;;5046956;28;20428;-64
2023/11/29 03:06:30;;;;;;;;;;;;;;;;;;5052600;28;20019;-64
2023/11/29 03:08:55;;;;;;;;;;;;;;;;;;5034754;28;19931;-63
2023/11/29 03:11:21;;;;;;;;;;;;;;;;;;5050363;28;19960;-63
2023/11/29 03:13:47;;;;;;;;;;;;;;;;;;5052621;28;19964;-64
2023/11/29 03:16:13;;;;;;;;;;;;;;;;;;5052630;28;20428;-63
2023/11/29 03:18:39;;;;;;;;;;;;;;;;;;5031732;28;19952;-63
2023/11/29 03:21:05;;;;;;;;;;;;;;;;;;5051461;28;19956;-64
2023/11/29 03:23:31;;;;;;;;;;;;;;;;;;5052839;28;19956;-64
2023/11/29 03:25:57;;;;;;;;;;;;;;;;;;5052041;28;19921;-63
2023/11/29 03:28:23;;;;;;;;;;;;;;;;;;5051594;28;19925;-63
2023/11/29 03:30:49;;;;;;;;;;;;;;;;;;5052203;28;19924;-64
2023/11/29 03:33:15;;;;;;;;;;;;;;;;;;5047173;28;19974;-64
2023/11/29 03:35:41;;;;;;;;;;;;;;;;;;5049312;28;19924;-64
2023/11/29 03:38:07;;;;;;;;;;;;;;;;;;5051161;28;19924;-64
2023/11/29 03:40:33;;;;;;;;;;;;;;;;;;5055623;28;20309;-64
2023/11/29 03:42:59;;;;;;;;;;;;;;;;;;5050555;28;19933;-65
2023/11/29 03:45:25;;;;;;;;;;;;;;;;;;5054961;28;19924;-64
2023/11/29 03:47:51;;;;;;;;;;;;;;;;;;5053832;28;19924;-65
2023/11/29 03:50:17;;;;;;;;;;;;;;;;;;5051738;28;19927;-65
2023/11/29 03:52:43;;;;;;;;;;;;;;;;;;5054754;28;19928;-66
2023/11/29 03:55:09;;;;;;;;;;;;;;;;;;5050550;28;19924;-65
2023/11/29 03:57:35;;;;;;;;;;;;;;;;;;5057598;28;20354;-64
2023/11/29 04:00:00;;;;;;;;;;;;;;;;;;5052537;28;20488;-65
2023/11/29 04:02:26;;;;;;;;;;;;;;;;;;5053815;28;19928;-65
2023/11/29 04:04:52;;;;;;;;;;;;;;;;;;5044418;28;20306;-65
2023/11/29 04:07:18;;;;;;;;;;;;;;;;;;5054065;28;19927;-65
2023/11/29 04:09:44;;;;;;;;;;;;;;;;;;5049550;28;19921;-65
2023/11/29 04:12:10;;;;;;;;;;;;;;;;;;5052721;28;19925;-63
2023/11/29 04:14:37;;;;;;;;;;;;;;;;;;5055007;28;20266;-64
2023/11/29 04:17:03;;;;;;;;;;;;;;;;;;5055285;28;19925;-63
2023/11/29 04:19:29;;;;;;;;;;;;;;;;;;5050523;28;19925;-64
2023/11/29 04:21:56;;;;;;;;;;;;;;;;;;5056328;28;19928;-64
2023/11/29 04:24:22;;;;;;;;;;;;;;;;;;5030447;28;19928;-64
2023/11/29 04:26:47;;;;;;;;;;;;;;;;;;5056623;22;19928;-68
2023/11/29 04:29:14;;;;;;;;;;;;;;;;;;5051120;28;19929;-67
2023/11/29 04:31:40;;;;;;;;;;;;;;;;;;5045573;28;20003;-67
2023/11/29 04:34:06;;;;;;;;;;;;;;;;;;5050455;28;20043;-67
2023/11/29 04:36:32;;;;;;;;;;;;;;;;;;5049173;28;19928;-67
2023/11/29 04:38:58;;;;;;;;;;;;;;;;;;5046315;28;19924;-68
2023/11/29 04:41:24;;;;;;;;;;;;;;;;;;5050378;28;19925;-68
2023/11/29 04:43:49;;;;;;;;;;;;;;;;;;5051538;28;19921;-68
2023/11/29 04:46:15;;;;;;;;;;;;;;;;;;5049277;28;19948;-68
2023/11/29 04:48:41;;;;;;;;;;;;;;;;;;5050343;28;19921;-68
2023/11/29 04:51:07;;;;;;;;;;;;;;;;;;5052572;28;19924;-68
2023/11/29 04:53:33;;;;;;;;;;;;;;;;;;5047935;28;19936;-68
2023/11/29 04:55:59;;;;;;;;;;;;;;;;;;5046341;28;19932;-68
2023/11/29 04:58:25;;;;;;;;;;;;;;;;;;5049820;28;19956;-68
2023/11/29 05:00:53;;;;;;;;;;;;;;;;;;5051828;28;19963;-68
2023/11/29 05:03:19;;;;;;;;;;;;;;;;;;5047620;28;20446;-68
2023/11/29 05:05:44;;;;;;;;;;;;;;;;;;5044584;28;20020;-66
2023/11/29 05:08:10;;;;;;;;;;;;;;;;;;5047682;28;19929;-67
2023/11/29 05:10:36;;;;;;;;;;;;;;;;;;5044471;28;19956;-68
2023/11/29 05:13:02;;;;;;;;;;;;;;;;;;5049513;28;20352;-68
2023/11/29 05:15:28;;;;;;;;;;;;;;;;;;5045747;28;20019;-67
2023/11/29 05:17:55;;;;;;;;;;;;;;;;;;5054956;28;20278;-67
2023/11/29 05:20:21;;;;;;;;;;;;;;;;;;5048643;28;20295;-67
2023/11/29 05:22:47;;;;;;;;;;;;;;;;;;5046140;28;19939;-67
2023/11/29 05:25:13;;;;;;;;;;;;;;;;;;5026985;28;19925;-67
2023/11/29 05:27:39;;;;;;;;;;;;;;;;;;5049132;28;20031;-68
2023/11/29 05:30:05;;;;;;;;;;;;;;;;;;5048892;28;20434;-66
2023/11/29 05:32:32;;;;;;;;;;;;;;;;;;5049282;28;19925;-67
2023/11/29 05:34:57;;;;;;;;;;;;;;;;;;5042115;28;19921;-67
2023/11/29 05:37:23;;;;;;;;;;;;;;;;;;5043307;28;19974;-67
2023/11/29 05:39:49;;;;;;;;;;;;;;;;;;5041094;28;19931;-68
2023/11/29 05:42:15;;;;;;;;;;;;;;;;;;5048702;28;19975;-67
2023/11/29 05:44:41;;;;;;;;;;;;;;;;;;5049566;28;19948;-67
2023/11/29 05:47:07;;;;;;;;;;;;;;;;;;5047411;28;20370;-68
2023/11/29 05:49:33;;;;;;;;;;;;;;;;;;5049792;28;19936;-67
2023/11/29 05:51:59;;;;;;;;;;;;;;;;;;5047686;28;19921;-68
2023/11/29 05:54:26;;;;;;;;;;;;;;;;;;5050279;28;19927;-68
2023/11/29 05:56:52;;;;;;;;;;;;;;;;;;5045726;28;19924;-68
2023/11/29 05:59:18;;;;;;;;;;;;;;;;;;5048310;28;20014;-67
2023/11/29 06:01:44;;;;;;;;;;;;;;;;;;5030778;28;19932;-67
2023/11/29 06:04:10;;;;;;;;;;;;;;;;;;5049295;28;20432;-67
2023/11/29 06:06:36;;;;;;;;;;;;;;;;;;5032781;28;19921;-67
2023/11/29 06:09:07;;;;;;;;;;;;;;;;;;5039457;28;19978;-68
2023/11/29 06:11:33;;;;;;;;;;;;;;;;;;5039275;28;19925;-68
2023/11/29 06:13:59;;;;;;;;;;;;;;;;;;5047578;28;19966;-68
2023/11/29 06:16:25;;;;;;;;;;;;;;;;;;5044178;28;19924;-68
2023/11/29 06:18:51;;;;;;;;;;;;;;;;;;5064126;28;19956;-68
2023/11/29 06:21:17;;;;;;;;;;;;;;;;;;5044619;28;19961;-69
2023/11/29 06:23:44;;;;;;;;;;;;;;;;;;5046628;28;19972;-68
2023/11/29 06:26:09;;;;;;;;;;;;;;;;;;5034654;28;19931;-68
2023/11/29 06:28:40;;;;;;;;;;;;;;;;;;5055916;28;20274;-68
2023/11/29 06:31:07;;;;;;;;;;;;;;;;;;5050760;28;19974;-68
2023/11/29 06:33:33;;;;;;;;;;;;;;;;;;5051641;28;19936;-68
2023/11/29 06:35:59;;;;;;;;;;;;;;;;;;5046707;28;19990;-68
2023/11/29 06:38:26;;;;;;;;;;;;;;;;;;5055583;28;19925;-68
2023/11/29 06:40:52;;;;;;;;;;;;;;;;;;5052924;28;20325;-69
2023/11/29 06:43:18;;;;;;;;;;;;;;;;;;5056183;28;19928;-70
2023/11/29 06:45:44;;;;;;;;;;;;;;;;;;5060987;28;19929;-69
2023/11/29 06:48:10;;;;;;;;;;;;;;;;;;5054050;28;19921;-69
2023/11/29 06:50:36;;;;;;;;;;;;;;;;;;5056104;28;19931;-69
2023/11/29 06:53:03;;;;;;;;;;;;;;;;;;5052228;28;19928;-68
2023/11/29 06:55:29;;;;;;;;;;;;;;;;;;5053931;28;19967;-68
2023/11/29 06:57:55;;;;;;;;;;;;;;;;;;5061270;28;19955;-69
2023/11/29 07:00:21;;;;;;;;;;;;;;;;;;5052364;28;20066;-68
2023/11/29 07:02:47;;;;;;;;;;;;;;;;;;5049397;28;19932;-69
2023/11/29 07:05:13;;;;;;;;;;;;;;;;;;5057091;28;20248;-69
2023/11/29 07:07:39;;;;;;;;;;;;;;;;;;5055104;28;19928;-69
2023/11/29 07:10:05;;;;;;;;;;;;;;;;;;5049315;28;20378;-68
2023/11/29 07:12:32;;;;;;;;;;;;;;;;;;5057367;28;19935;-68
2023/11/29 07:15:01;;;;;;;;;;;;;;;;;;5052694;28;19921;-68
2023/11/29 07:17:27;;;;;;;;;;;;;;;;;;5035166;28;20050;-69
2023/11/29 07:19:53;;;;;;;;;;;;;;;;;;5060119;28;19995;-68
2023/11/29 07:22:24;;;;;;;;;;;;;;;;;;5053096;28;19931;-68
2023/11/29 07:24:50;;;;;;;;;;;;;;;;;;5049339;28;20615;-68
2023/11/29 07:27:15;;;;;;;;;;;;;;;;;;5053382;28;19933;-69
2023/11/29 07:29:41;;;;;;;;;;;;;;;;;;5052660;28;19924;-69
2023/11/29 07:32:07;;;;;;;;;;;;;;;;;;5051306;28;19924;-68
2023/11/29 07:34:33;;;;;;;;;;;;;;;;;;5045515;28;20439;-68
2023/11/29 07:37:00;;;;;;;;;;;;;;;;;;5051300;28;19955;-68
2023/11/29 07:39:29;;;;;;;;;;;;;;;;;;5046619;28;19924;-68
2023/11/29 07:41:54;;;;;;;;;;;;;;;;;;5046704;28;20380;-68
2023/11/29 07:44:21;;;;;;;;;;;;;;;;;;5052997;28;19925;-69
2023/11/29 07:46:47;;;;;;;;;;;;;;;;;;5048962;28;19980;-69
2023/11/29 07:49:14;;;;;;;;;;;;;;;;;;5050086;28;19921;-68
2023/11/29 07:51:40;;;;;;;;;;;;;;;;;;5049939;28;20348;-69
2023/11/29 07:54:06;;;;;;;;;;;;;;;;;;5051359;28;19967;-68
2023/11/29 07:56:32;;;;;;;;;;;;;;;;;;5049203;28;19970;-68
2023/11/29 07:58:58;;;;;;;;;;;;;;;;;;5033021;28;19921;-68
2023/11/29 08:01:24;;;;;;;;;;;;;;;;;;5052941;28;19929;-69
2023/11/29 08:03:50;;;;;;;;;;;;;;;;;;5052219;28;20558;-67
2023/11/29 08:06:17;;;;;;;;;;;;;;;;;;5040293;28;19921;-68
2023/11/29 08:08:43;;;;;;;;;;;;;;;;;;5039561;28;19931;-68
2023/11/29 08:11:09;;;;;;;;;;;;;;;;;;5044267;28;19921;-68
2023/11/29 08:13:35;;;;;;;;;;;;;;;;;;5044647;28;20027;-67
2023/11/29 08:16:01;;;;;;;;;;;;;;;;;;5044329;28;19929;-68
2023/11/29 08:18:27;;;;;;;;;;;;;;;;;;5049358;28;19929;-67
2023/11/29 08:20:53;;;;;;;;;;;;;;;;;;5032701;28;19928;-68
2023/11/29 08:23:19;;;;;;;;;;;;;;;;;;5050099;28;20283;-67
2023/11/29 08:25:45;;;;;;;;;;;;;;;;;;5051216;28;19978;-66
2023/11/29 08:28:11;;;;;;;;;;;;;;;;;;5045322;28;21329;-68
2023/11/29 08:30:36;;;;;;;;;;;;;;;;;;5042947;28;19944;-67
2023/11/29 08:33:02;;;;;;;;;;;;;;;;;;5047792;28;19920;-68
2023/11/29 08:35:28;;;;;;;;;;;;;;;;;;5049538;28;19924;-66
2023/11/29 08:37:54;;;;;;;;;;;;;;;;;;5050012;28;19952;-66
2023/11/29 08:40:20;;;;;;;;;;;;;;;;;;5051639;28;20484;-68
2023/11/29 08:42:46;;;;;;;;;;;;;;;;;;5044686;28;20009;-67
2023/11/29 08:45:12;;;;;;;;;;;;;;;;;;5048073;28;19939;-67
2023/11/29 08:47:38;;;;;;;;;;;;;;;;;;5050205;28;20313;-67
2023/11/29 08:50:05;;;;;;;;;;;;;;;;;;5048078;28;20489;-67
2023/11/29 08:52:31;;;;;;;;;;;;;;;;;;5049075;28;19936;-68
2023/11/29 08:54:57;;;;;;;;;;;;;;;;;;5043632;28;19920;-67
2023/11/29 08:57:23;;;;;;;;;;;;;;;;;;5050583;28;19928;-67
2023/11/29 08:59:50;;;;;;;;;;;;;;;;;;5042642;28;20361;-68
2023/11/29 09:02:16;;;;;;;;;;;;;;;;;;5043726;28;20016;-68
2023/11/29 09:04:42;;;;;;;;;;;;;;;;;;5045707;28;19920;-68
2023/11/29 09:07:08;;;;;;;;;;;;;;;;;;5045166;28;19925;-66
2023/11/29 09:09:34;;;;;;;;;;;;;;;;;;5048344;28;19924;-67
2023/11/29 09:12:00;;;;;;;;;;;;;;;;;;5046285;28;19982;-67
2023/11/29 09:14:26;;;;;;;;;;;;;;;;;;5051102;28;19924;-68
2023/11/29 09:16:52;;;;;;;;;;;;;;;;;;5046119;28;19929;-67
2023/11/29 09:19:18;;;;;;;;;;;;;;;;;;5050114;28;19921;-67
2023/11/29 09:21:44;;;;;;;;;;;;;;;;;;5047346;28;19928;-67
2023/11/29 09:24:10;;;;;;;;;;;;;;;;;;5046766;28;19991;-67
2023/11/29 09:26:36;;;;;;;;;;;;;;;;;;5048825;28;20458;-66
2023/11/29 09:29:02;;;;;;;;;;;;;;;;;;5042789;28;19925;-68
2023/11/29 09:31:28;;;;;;;;;;;;;;;;;;5045896;28;19931;-67
2023/11/29 09:33:57;;;;;;;;;;;;;;;;;;5047389;28;19929;-67
2023/11/29 09:36:23;;;;;;;;;;;;;;;;;;5045447;28;20312;-67
2023/11/29 09:38:50;;;;;;;;;;;;;;;;;;5046393;28;20007;-67
2023/11/29 09:41:16;;;;;;;;;;;;;;;;;;5045381;28;20012;-67
2023/11/29 09:43:42;;;;;;;;;;;;;;;;;;5047231;28;19964;-67
2023/11/29 09:46:07;;;;;;;;;;;;;;;;;;5041857;28;19960;-67
2023/11/29 09:48:33;;;;;;;;;;;;;;;;;;5034427;28;20445;-67
2023/11/29 09:50:59;;;;;;;;;;;;;;;;;;5038201;28;20263;-67
2023/11/29 09:53:26;;;;;;;;;;;;;;;;;;5047775;28;19951;-67
2023/11/29 09:55:52;;;;;;;;;;;;;;;;;;5047661;28;20293;-67
2023/11/29 09:58:18;;;;;;;;;;;;;;;;;;5050787;28;20015;-68
2023/11/29 10:00:44;;;;;;;;;;;;;;;;;;5039378;28;20292;-67
2023/11/29 10:03:10;;;;;;;;;;;;;;;;;;5049136;28;19925;-68
2023/11/29 10:05:36;;;;;;;;;;;;;;;;;;5045107;28;19947;-68
2023/11/29 10:08:02;;;;;;;;;;;;;;;;;;5044442;28;19927;-68
2023/11/29 10:10:28;;;;;;;;;;;;;;;;;;5045061;28;19928;-68
2023/11/29 10:12:54;;;;;;;;;;;;;;;;;;5044741;28;19925;-67
2023/11/29 10:15:20;;;;;;;;;;;;;;;;;;5042649;28;20417;-68
2023/11/29 10:17:46;;;;;;;;;;;;;;;;;;5048871;28;19927;-68
2023/11/29 10:20:12;;;;;;;;;;;;;;;;;;5046583;28;19928;-67
2023/11/29 10:22:38;;;;;;;;;;;;;;;;;;5035112;28;19929;-68
2023/11/29 10:25:04;;;;;;;;;;;;;;;;;;5049078;28;19925;-67
2023/11/29 10:27:29;;;;;;;;;;;;;;;;;;5049912;28;19978;-67
2023/11/29 10:29:55;;;;;;;;;;;;;;;;;;5045228;28;19925;-68
2023/11/29 10:32:21;;;;;;;;;;;;;;;;;;5043792;28;19925;-67
2023/11/29 10:34:50;;;;;;;;;;;;;;;;;;5049206;28;20450;-67
2023/11/29 10:37:16;;;;;;;;;;;;;;;;;;5036799;28;20382;-68
2023/11/29 10:39:42;;;;;;;;;;;;;;;;;;5043398;28;19932;-67
2023/11/29 10:42:08;;;;;;;;;;;;;;;;;;5027752;28;20007;-67
2023/11/29 10:44:34;;;;;;;;;;;;;;;;;;5043779;28;19931;-67
2023/11/29 10:47:00;;;;;;;;;;;;;;;;;;5048057;28;20266;-67
2023/11/29 10:49:26;;;;;;;;;;;;;;;;;;5040410;28;19921;-67
2023/11/29 10:51:52;;;;;;;;;;;;;;;;;;5038442;28;19932;-67
2023/11/29 10:54:18;;;;;;;;;;;;;;;;;;5040277;28;19921;-67
2023/11/29 10:56:44;;;;;;;;;;;;;;;;;;5043130;28;19920;-67
2023/11/29 10:59:10;;;;;;;;;;;;;;;;;;5048906;28;19936;-67
2023/11/29 11:01:36;;;;;;;;;;;;;;;;;;5049410;28;19924;-66
2023/11/29 11:04:03;;;;;;;;;;;;;;;;;;5049534;28;20266;-68
2023/11/29 11:06:29;;;;;;;;;;;;;;;;;;5043869;28;20365;-67
2023/11/29 11:08:55;;;;;;;;;;;;;;;;;;5041023;28;19921;-67
2023/11/29 11:11:21;;;;;;;;;;;;;;;;;;5015629;28;20582;-67
2023/11/29 11:13:47;;;;;;;;;;;;;;;;;;5049148;28;20014;-67
2023/11/29 11:16:13;;;;;;;;;;;;;;;;;;5052743;28;19964;-68
2023/11/29 11:18:39;;;;;;;;;;;;;;;;;;5051861;28;20863;-68
2023/11/29 11:21:06;;;;;;;;;;;;;;;;;;5045919;28;19960;-68
2023/11/29 11:23:32;;;;;;;;;;;;;;;;;;5050753;28;19921;-68
2023/11/29 11:25:58;;;;;;;;;;;;;;;;;;5058922;28;19932;-67
2023/11/29 11:28:24;;;;;;;;;;;;;;;;;;5047068;28;19925;-68
2023/11/29 11:30:50;;;;;;;;;;;;;;;;;;5053154;28;19927;-66
2023/11/29 11:33:16;;;;;;;;;;;;;;;;;;5051670;28;20313;-67
2023/11/29 11:35:42;;;;;;;;;;;;;;;;;;5052441;28;19921;-67
2023/11/29 11:38:08;;;;;;;;;;;;;;;;;;5048056;28;19931;-67
2023/11/29 11:40:34;;;;;;;;;;;;;;;;;;5050173;28;20908;-67
2023/11/29 11:43:00;;;;;;;;;;;;;;;;;;5048659;28;19967;-67
2023/11/29 11:45:31;;;;;;;;;;;;;;;;;;5036575;28;19929;-66
2023/11/29 11:47:57;;;;;;;;;;;;;;;;;;5051958;28;19921;-68
2023/11/29 11:50:23;;;;;;;;;;;;;;;;;;5049318;28;19931;-67
2023/11/29 11:52:49;;;;;;;;;;;;;;;;;;5050053;28;20359;-67
2023/11/29 11:55:17;;;;;;;;;;;;;;;;;;5051352;28;19975;-67
2023/11/29 11:57:44;;;;;;;;;;;;;;;;;;5045360;28;19929;-67
2023/11/29 12:00:09;;;;;;;;;;;;;;;;;;5040005;28;19936;-67
2023/11/29 12:02:36;;;;;;;;;;;;;;;;;;5045018;28;19928;-67
2023/11/29 12:05:03;;;;;;;;;;;;;;;;;;5048162;28;20014;-67
2023/11/29 12:07:29;;;;;;;;;;;;;;;;;;5048758;28;19924;-68
2023/11/29 12:09:55;;;;;;;;;;;;;;;;;;5051734;28;20382;-67
2023/11/29 12:12:21;;;;;;;;;;;;;;;;;;5047260;28;19925;-67
2023/11/29 12:14:47;;;;;;;;;;;;;;;;;;5052816;28;19966;-66
2023/11/29 12:17:13;;;;;;;;;;;;;;;;;;5048029;28;20341;-68
2023/11/29 12:19:39;;;;;;;;;;;;;;;;;;5046300;28;20319;-67
2023/11/29 12:22:06;;;;;;;;;;;;;;;;;;5046148;28;20275;-67
2023/11/29 12:24:32;;;;;;;;;;;;;;;;;;5049746;28;19990;-67
2023/11/29 12:26:58;;;;;;;;;;;;;;;;;;5050739;28;19968;-67
2023/11/29 12:29:23;;;;;;;;;;;;;;;;;;5051611;28;20342;-67
2023/11/29 12:31:50;;;;;;;;;;;;;;;;;;5050526;28;19928;-67
2023/11/29 12:34:15;;;;;;;;;;;;;;;;;;5049685;28;19960;-67
2023/11/29 12:36:41;;;;;;;;;;;;;;;;;;5046753;28;19974;-67
2023/11/29 12:39:07;;;;;;;;;;;;;;;;;;5042084;28;20381;-67
2023/11/29 12:41:33;;;;;;;;;;;;;;;;;;5052243;28;19963;-68
2023/11/29 12:43:59;;;;;;;;;;;;;;;;;;5050496;28;20255;-68
2023/11/29 12:46:25;;;;;;;;;;;;;;;;;;5051372;28;19932;-68
2023/11/29 12:48:51;;;;;;;;;;;;;;;;;;5051057;28;19932;-68
2023/11/29 12:51:17;;;;;;;;;;;;;;;;;;5041232;28;19921;-67
2023/11/29 12:53:43;;;;;;;;;;;;;;;;;;5050247;28;19921;-67
2023/11/29 12:56:09;;;;;;;;;;;;;;;;;;5052060;28;19925;-67
2023/11/29 12:58:35;;;;;;;;;;;;;;;;;;5051775;28;19921;-68
2023/11/29 13:01:01;;;;;;;;;;;;;;;;;;5047990;28;19947;-67
2023/11/29 13:03:27;;;;;;;;;;;;;;;;;;5049554;28;20413;-67
2023/11/29 13:05:53;;;;;;;;;;;;;;;;;;5051216;28;19929;-67
2023/11/29 13:08:18;;;;;;;;;;;;;;;;;;5043287;28;19921;-67
2023/11/29 13:10:44;;;;;;;;;;;;;;;;;;5050133;28;19921;-67
2023/11/29 13:13:10;;;;;;;;;;;;;;;;;;5048199;28;19928;-68
2023/11/29 13:15:36;;;;;;;;;;;;;;;;;;5050983;28;19924;-69
2023/11/29 13:18:02;;;;;;;;;;;;;;;;;;5050267;28;19921;-67
2023/11/29 13:20:28;;;;;;;;;;;;;;;;;;5050237;28;20015;-67
2023/11/29 13:22:54;;;;;;;;;;;;;;;;;;5044341;28;20004;-68
2023/11/29 13:25:20;;;;;;;;;;;;;;;;;;5051185;28;19933;-67
2023/11/29 13:27:46;;;;;;;;;;;;;;;;;;5046716;28;20402;-67
2023/11/29 13:30:12;;;;;;;;;;;;;;;;;;5047961;28;20424;-67
2023/11/29 13:32:38;;;;;;;;;;;;;;;;;;5051718;28;19925;-67
2023/11/29 13:35:04;;;;;;;;;;;;;;;;;;5052107;28;19929;-67
2023/11/29 13:37:30;;;;;;;;;;;;;;;;;;5049256;28;19982;-67
2023/11/29 13:39:56;;;;;;;;;;;;;;;;;;5051767;28;19978;-67
2023/11/29 13:42:22;;;;;;;;;;;;;;;;;;5048997;28;19971;-68
2023/11/29 13:44:48;;;;;;;;;;;;;;;;;;5045130;28;19960;-68
2023/11/29 13:47:14;;;;;;;;;;;;;;;;;;5049077;28;20336;-67
2023/11/29 13:49:39;;;;;;;;;;;;;;;;;;5049812;28;20039;-68
2023/11/29 13:52:05;;;;;;;;;;;;;;;;;;5050575;28;20019;-67
2023/11/29 13:54:31;;;;;;;;;;;;;;;;;;5048415;28;20008;-68
2023/11/29 13:56:57;;;;;;;;;;;;;;;;;;5053531;28;19996;-68
2023/11/29 13:59:23;;;;;;;;;;;;;;;;;;5047567;28;20446;-67
2023/11/29 14:01:49;;;;;;;;;;;;;;;;;;5051622;28;19931;-68
2023/11/29 14:04:15;;;;;;;;;;;;;;;;;;5051255;28;19929;-67
2023/11/29 14:06:41;;;;;;;;;;;;;;;;;;5051246;28;20386;-67
2023/11/29 14:09:08;;;;;;;;;;;;;;;;;;5051086;28;20409;-67
2023/11/29 14:11:35;;;;;;;;;;;;;;;;;;5046335;28;19974;-67
2023/11/29 14:14:01;;;;;;;;;;;;;;;;;;5043585;28;19935;-67
2023/11/29 14:16:27;;;;;;;;;;;;;;;;;;5049725;28;20003;-67
2023/11/29 14:18:53;;;;;;;;;;;;;;;;;;5050148;28;20028;-67
2023/11/29 14:21:19;;;;;;;;;;;;;;;;;;5047058;28;19972;-67
2023/11/29 14:23:45;;;;;;;;;;;;;;;;;;5049460;28;20374;-68
2023/11/29 14:26:11;;;;;;;;;;;;;;;;;;5049435;28;19928;-67
2023/11/29 14:28:39;;;;;;;;;;;;;;;;;;5045558;28;19921;-68
2023/11/29 14:31:05;;;;;;;;;;;;;;;;;;5047772;28;20385;-67
2023/11/29 14:33:30;;;;;;;;;;;;;;;;;;5049795;28;19925;-66
2023/11/29 14:35:56;;;;;;;;;;;;;;;;;;5031692;28;19925;-67
2023/11/29 14:38:22;;;;;;;;;;;;;;;;;;5044310;28;19929;-66
2023/11/29 14:40:50;;;;;;;;;;;;;;;;;;5045394;28;19925;-67
2023/11/29 14:43:16;;;;;;;;;;;;;;;;;;5049845;28;20029;-67
2023/11/29 14:45:42;;;;;;;;;;;;;;;;;;5048147;28;20400;-67
2023/11/29 14:48:08;;;;;;;;;;;;;;;;;;5047209;28;19927;-67
2023/11/29 14:50:34;;;;;;;;;;;;;;;;;;5051037;28;20305;-67
2023/11/29 14:52:59;;;;;;;;;;;;;;;;;;5053719;28;19927;-67
2023/11/29 14:55:26;;;;;;;;;;;;;;;;;;5050276;28;20376;-67
2023/11/29 14:57:51;;;;;;;;;;;;;;;;;;5053639;28;20036;-67
2023/11/29 15:00:17;;;;;;;;;;;;;;;;;;5050027;28;20059;-67
2023/11/29 15:02:43;;;;;;;;;;;;;;;;;;5049895;28;20339;-67
2023/11/29 15:05:09;;;;;;;;;;;;;;;;;;5049508;28;20007;-67
2023/11/29 15:07:35;;;;;;;;;;;;;;;;;;5051432;28;19940;-67
2023/11/29 15:10:01;;;;;;;;;;;;;;;;;;5028165;28;19929;-67
2023/11/29 15:12:27;;;;;;;;;;;;;;;;;;5039027;28;19920;-67
2023/11/29 15:14:53;;;;;;;;;;;;;;;;;;5043662;28;19928;-68
2023/11/29 15:17:19;;;;;;;;;;;;;;;;;;5040132;28;20892;-67
2023/11/29 15:19:45;;;;;;;;;;;;;;;;;;5044028;28;19929;-67
2023/11/29 15:22:11;;;;;;;;;;;;;;;;;;5033362;28;19985;-68
2023/11/29 15:24:37;;;;;;;;;;;;;;;;;;5046043;28;20015;-67
2023/11/29 15:27:03;;;;;;;;;;;;;;;;;;5049308;28;19929;-67
2023/11/29 15:29:28;;;;;;;;;;;;;;;;;;5051818;28;19960;-68
2023/11/29 15:31:55;;;;;;;;;;;;;;;;;;5047176;28;20456;-67
2023/11/29 15:34:21;;;;;;;;;;;;;;;;;;5047738;28;19998;-66
2023/11/29 15:36:47;;;;;;;;;;;;;;;;;;5052169;28;20589;-67
2023/11/29 15:39:13;;;;;;;;;;;;;;;;;;5052343;28;19925;-68
2023/11/29 15:41:40;;;;;;;;;;;;;;;;;;5075941;22;19931;-64
2023/11/29 15:44:06;;;;;;;;;;;;;;;;;;5070009;28;19963;-63
2023/11/29 15:46:32;;;;;;;;;;;;;;;;;;5070401;28;19971;-63
2023/11/29 15:48:58;;;;;;;;;;;;;;;;;;5060240;28;20517;-63
2023/11/29 15:51:24;;;;;;;;;;;;;;;;;;5070087;28;19967;-63
2023/11/29 15:53:50;;;;;;;;;;;;;;;;;;5071991;28;19920;-63
2023/11/29 15:56:16;;;;;;;;;;;;;;;;;;5055442;28;19928;-63
2023/11/29 15:58:43;;;;;;;;;;;;;;;;;;5069338;28;19921;-64
2023/11/29 16:01:09;;;;;;;;;;;;;;;;;;5071192;28;20054;-64
2023/11/29 16:03:35;;;;;;;;;;;;;;;;;;5070765;28;20007;-64
2023/11/29 16:06:02;;;;;;;;;;;;;;;;;;5074369;28;20036;-64
2023/11/29 16:08:28;;;;;;;;;;;;;;;;;;5066264;28;20138;-64
2023/11/29 16:10:53;;;;;;;;;;;;;;;;;;5070187;28;20037;-64
2023/11/29 16:13:19;;;;;;;;;;;;;;;;;;5073501;28;19924;-64
2023/11/29 16:15:45;;;;;;;;;;;;;;;;;;5045148;28;19962;-64
2023/11/29 16:18:11;;;;;;;;;;;;;;;;;;5072749;28;19921;-62
2023/11/29 16:20:37;;;;;;;;;;;;;;;;;;5072075;28;19924;-63
2023/11/29 16:23:03;;;;;;;;;;;;;;;;;;5075197;28;19929;-63
2023/11/29 16:25:29;;;;;;;;;;;;;;;;;;5066873;28;20374;-63
2023/11/29 16:27:55;;;;;;;;;;;;;;;;;;5075230;28;19973;-63
2023/11/29 16:30:21;;;;;;;;;;;;;;;;;;5072516;28;19974;-63
2023/11/29 16:32:48;;;;;;;;;;;;;;;;;;5071924;28;19924;-62
2023/11/29 16:35:14;;;;;;;;;;;;;;;;;;5055926;28;19951;-64
2023/11/29 16:37:40;;;;;;;;;;;;;;;;;;5068455;28;19924;-63